createdAt,value
2022-10-26T00:01:22.607Z,97608.22
2022-10-26T00:03:50.760Z,97609.03
2022-10-26T00:06:22.793Z,97605.09
2022-10-26T00:08:51.264Z,97609.84
2022-10-26T00:11:19.985Z,97611.72
2022-10-26T00:13:48.707Z,97607.16
2022-10-26T00:16:21.519Z,97606.53
2022-10-26T00:18:50.618Z,97604.47
2022-10-26T00:21:19.077Z,97605.28
2022-10-26T00:23:46.978Z,97608.00
2022-10-26T00:26:14.823Z,97607.78
2022-10-26T00:28:42.762Z,97610.47
2022-10-26T00:31:16.135Z,97606.13
2022-10-26T00:33:44.237Z,97610.25
2022-10-26T00:36:14.541Z,97611.28
2022-10-26T00:38:46.217Z,97618.31
2022-10-26T00:41:17.565Z,97612.31
2022-10-26T00:43:45.813Z,97621.25
2022-10-26T00:46:30.508Z,97612.75
2022-10-26T00:49:12.866Z,97613.97
2022-10-26T00:51:48.604Z,97623.09
2022-10-26T00:54:19.168Z,97622.69
2022-10-26T00:56:52.100Z,97626.81
2022-10-26T00:59:23.250Z,97623.53
2022-10-26T01:01:52.299Z,97626.22
2022-10-26T01:04:20.929Z,97630.75
2022-10-26T01:07:14.836Z,97629.09
2022-10-26T01:09:43.127Z,97623.72
2022-10-26T01:12:10.947Z,97618.13
2022-10-26T01:14:39.300Z,97609.22
2022-10-26T01:17:18.785Z,97616.06
2022-10-26T01:20:26.870Z,97610.66
2022-10-26T01:23:20.140Z,97602.81
2022-10-26T01:26:27.730Z,97585.81
2022-10-26T01:29:07.400Z,97580.25
2022-10-26T01:32:04.004Z,97581.91
2022-10-26T01:34:49.070Z,97582.28
2022-10-26T01:37:26.211Z,97584.78
2022-10-26T01:40:03.017Z,97582.72
2022-10-26T01:42:32.182Z,97582.72
2022-10-26T01:45:09.865Z,97568.22
2022-10-26T01:47:39.302Z,97565.31
2022-10-26T01:50:08.937Z,97562.84
2022-10-26T01:52:36.755Z,97570.91
2022-10-26T01:55:47.170Z,97580.84
2022-10-26T01:58:44.362Z,97567.59
2022-10-26T02:01:45.336Z,97558.06
2022-10-26T02:04:50.516Z,97555.38
2022-10-26T02:07:46.463Z,97555.16
2022-10-26T02:10:35.193Z,97556.22
2022-10-26T02:13:39.646Z,97544.00
2022-10-26T02:16:27.681Z,97556.84
2022-10-26T02:19:03.267Z,97569.66
2022-10-26T02:21:46.686Z,97567.41
2022-10-26T02:24:17.254Z,97572.56
2022-10-26T02:26:48.737Z,97570.72
2022-10-26T02:29:19.490Z,97577.13
2022-10-26T02:31:49.679Z,97581.47
2022-10-26T02:34:25.822Z,97581.25
2022-10-26T02:36:58.230Z,97586.84
2022-10-26T02:39:32.618Z,97589.78
2022-10-26T02:42:07.557Z,97589.13
2022-10-26T02:44:53.674Z,97599.09
2022-10-26T02:47:22.468Z,97598.88
2022-10-26T02:49:50.669Z,97598.66
2022-10-26T02:52:51.574Z,97580.44
2022-10-26T02:55:27.782Z,97584.38
2022-10-26T02:58:00.905Z,97585.22
2022-10-26T03:00:30.917Z,97596.19
2022-10-26T03:02:59.883Z,97602.81
2022-10-26T03:05:33.253Z,97591.22
2022-10-26T03:08:01.432Z,97597.84
2022-10-26T03:10:29.531Z,97596.56
2022-10-26T03:12:57.312Z,97605.50
2022-10-26T03:15:25.153Z,97601.31
2022-10-26T03:17:52.906Z,97608.16
2022-10-26T03:20:20.718Z,97606.31
2022-10-26T03:22:48.855Z,97617.69
2022-10-26T03:25:16.999Z,97615.00
2022-10-26T03:27:45.071Z,97619.97
2022-10-26T03:30:13.016Z,97606.72
2022-10-26T03:32:40.821Z,97613.16
2022-10-26T03:35:09.160Z,97609.00
2022-10-26T03:37:37.043Z,97609.63
2022-10-26T03:40:05.424Z,97606.13
2022-10-26T03:42:40.189Z,97614.81
2022-10-26T03:45:10.005Z,97616.47
2022-10-26T03:47:47.846Z,97619.78
2022-10-26T03:50:19.936Z,97605.91
2022-10-26T03:52:49.243Z,97598.66
2022-10-26T03:55:17.369Z,97605.50
2022-10-26T03:57:46.180Z,97607.56
2022-10-26T04:00:17.362Z,97607.38
2022-10-26T04:02:53.347Z,97609.84
2022-10-26T04:05:21.343Z,97619.56
2022-10-26T04:08:03.182Z,97607.34
2022-10-26T04:10:31.900Z,97605.09
2022-10-26T04:13:01.290Z,97603.44
2022-10-26T04:15:29.732Z,97595.56
2022-10-26T04:18:02.688Z,97596.38
2022-10-26T04:20:33.211Z,97589.34
2022-10-26T04:23:04.615Z,97603.00
2022-10-26T04:25:33.928Z,97583.75
2022-10-26T04:28:04.372Z,97588.31
2022-10-26T04:30:33.650Z,97582.09
2022-10-26T04:33:02.105Z,97585.84
2022-10-26T04:35:30.063Z,97580.22
2022-10-26T04:38:04.590Z,97575.88
2022-10-26T04:40:34.240Z,97580.00
2022-10-26T04:43:02.117Z,97592.66
2022-10-26T04:45:31.156Z,97594.72
2022-10-26T04:48:07.644Z,97582.91
2022-10-26T04:50:36.472Z,97579.00
2022-10-26T04:53:06.527Z,97595.16
2022-10-26T04:55:35.237Z,97591.81
2022-10-26T04:58:03.147Z,97583.53
2022-10-26T05:00:33.081Z,97586.22
2022-10-26T05:03:03.227Z,97577.53
2022-10-26T05:05:35.974Z,97581.25
2022-10-26T05:08:04.907Z,97597.41
2022-10-26T05:10:33.536Z,97600.31
2022-10-26T05:13:02.191Z,97587.06
2022-10-26T05:15:30.707Z,97595.75
2022-10-26T05:18:01.579Z,97590.78
2022-10-26T05:20:32.622Z,97594.53
2022-10-26T05:23:07.165Z,97590.59
2022-10-26T05:25:38.723Z,97602.63
2022-10-26T05:28:13.330Z,97612.78
2022-10-26T05:30:44.679Z,97612.16
2022-10-26T05:33:14.071Z,97615.06
2022-10-26T05:35:41.945Z,97627.91
2022-10-26T05:38:19.084Z,97624.78
2022-10-26T05:40:52.132Z,97633.28
2022-10-26T05:43:22.936Z,97637.00
2022-10-26T05:45:51.735Z,97638.88
2022-10-26T05:48:22.968Z,97637.19
2022-10-26T05:50:50.905Z,97640.50
2022-10-26T05:53:18.798Z,97652.72
2022-10-26T05:55:47.015Z,97646.13
2022-10-26T05:58:16.616Z,97645.91
2022-10-26T06:01:22.760Z,97650.66
2022-10-26T06:04:08.266Z,97659.56
2022-10-26T06:06:50.228Z,97661.22
2022-10-26T06:09:18.415Z,97661.84
2022-10-26T06:11:46.922Z,97674.28
2022-10-26T06:14:15.234Z,97667.66
2022-10-26T06:16:48.534Z,97682.56
2022-10-26T06:19:34.521Z,97674.50
2022-10-26T06:22:17.319Z,97686.09
2022-10-26T06:25:08.305Z,97695.63
2022-10-26T06:28:27.293Z,97698.34
2022-10-26T06:30:56.901Z,97702.66
2022-10-26T06:33:29.345Z,97708.50
2022-10-26T06:36:27.600Z,97708.28
2022-10-26T06:39:16.554Z,97710.31
2022-10-26T06:41:44.880Z,97711.56
2022-10-26T06:44:23.812Z,97716.53
2022-10-26T06:47:09.783Z,97713.25
2022-10-26T06:50:18.884Z,97704.53
2022-10-26T06:53:05.210Z,97720.50
2022-10-26T06:55:43.980Z,97715.72
2022-10-26T06:58:19.800Z,97714.06
2022-10-26T07:00:51.210Z,97719.03
2022-10-26T07:03:19.029Z,97719.66
2022-10-26T07:05:47.933Z,97722.78
2022-10-26T07:08:15.922Z,97726.72
2022-10-26T07:10:43.816Z,97732.72
2022-10-26T07:13:11.843Z,97729.38
2022-10-26T07:15:40.993Z,97736.88
2022-10-26T07:18:09.578Z,97735.81
2022-10-26T07:20:41.992Z,97745.56
2022-10-26T07:23:13.753Z,97738.50
2022-10-26T07:25:42.392Z,97743.28
2022-10-26T07:28:11.428Z,97745.53
2022-10-26T07:30:40.283Z,97742.84
2022-10-26T07:33:12.235Z,97743.50
2022-10-26T07:35:40.677Z,97737.88
2022-10-26T07:38:09.378Z,97743.69
2022-10-26T07:40:38.156Z,97741.00
2022-10-26T07:43:06.790Z,97743.50
2022-10-26T07:45:35.261Z,97748.25
2022-10-26T07:48:03.115Z,97756.34
2022-10-26T07:50:30.980Z,97755.31
2022-10-26T07:52:59.860Z,97760.06
2022-10-26T07:55:28.318Z,97759.22
2022-10-26T07:57:56.657Z,97763.75
2022-10-26T08:00:25.755Z,97769.56
2022-10-26T08:02:54.012Z,97766.88
2022-10-26T08:05:22.275Z,97773.50
2022-10-26T08:07:50.205Z,97771.88
2022-10-26T08:10:18.152Z,97780.97
2022-10-26T08:12:45.997Z,97768.72
2022-10-26T08:15:13.861Z,97774.53
2022-10-26T08:17:41.677Z,97776.38
2022-10-26T08:20:10.423Z,97774.09
2022-10-26T08:22:38.170Z,97766.19
2022-10-26T08:25:06.327Z,97771.41
2022-10-26T08:27:34.076Z,97776.97
2022-10-26T08:30:01.877Z,97782.97
2022-10-26T08:32:29.676Z,97777.16
2022-10-26T08:34:57.453Z,97785.88
2022-10-26T08:37:26.663Z,97787.09
2022-10-26T08:39:55.882Z,97781.91
2022-10-26T08:42:50.689Z,97793.91
2022-10-26T08:45:36.717Z,97794.50
2022-10-26T08:48:17.850Z,97797.19
2022-10-26T08:50:53.576Z,97801.09
2022-10-26T08:53:37.914Z,97808.78
2022-10-26T08:56:24.277Z,97809.59
2022-10-26T08:58:57.469Z,97820.41
2022-10-26T09:01:25.641Z,97828.91
2022-10-26T09:03:53.787Z,97829.72
2022-10-26T09:06:41.931Z,97830.34
2022-10-26T09:09:40.381Z,97829.69
2022-10-26T09:12:34.797Z,97840.91
2022-10-26T09:15:12.987Z,97835.09
2022-10-26T09:18:09.925Z,97837.78
2022-10-26T09:20:37.722Z,97841.34
2022-10-26T09:23:56.450Z,97843.44
2022-10-26T09:26:32.585Z,97850.47
2022-10-26T09:29:07.673Z,97846.97
2022-10-26T09:31:44.946Z,97861.06
2022-10-26T09:34:42.311Z,97862.75
2022-10-26T09:37:24.328Z,97862.53
2022-10-26T09:40:21.762Z,97874.34
2022-10-26T09:43:17.348Z,97873.47
2022-10-26T09:45:52.754Z,97867.41
2022-10-26T09:48:34.124Z,97866.53
2022-10-26T09:51:04.709Z,97869.63
2022-10-26T09:53:33.259Z,97868.09
2022-10-26T09:56:11.506Z,97869.50
2022-10-26T09:59:05.338Z,97861.31
2022-10-26T10:01:38.537Z,97872.13
2022-10-26T10:04:12.903Z,97879.41
2022-10-26T10:06:41.239Z,97893.75
2022-10-26T10:09:23.784Z,97891.03
2022-10-26T10:11:58.940Z,97889.38
2022-10-26T10:14:37.391Z,97891.88
2022-10-26T10:17:22.914Z,97891.03
2022-10-26T10:19:52.208Z,97898.28
2022-10-26T10:22:24.889Z,97893.94
2022-10-26T10:24:57.843Z,97903.25
2022-10-26T10:27:26.763Z,97903.22
2022-10-26T10:30:01.293Z,97903.41
2022-10-26T10:32:35.814Z,97912.03
2022-10-26T10:35:29.719Z,97912.75
2022-10-26T10:38:22.760Z,97909.69
2022-10-26T10:41:00.055Z,97909.84
2022-10-26T10:43:28.467Z,97918.97
2022-10-26T10:45:59.767Z,97921.69
2022-10-26T10:48:31.669Z,97907.25
2022-10-26T10:51:05.419Z,97924.19
2022-10-26T10:53:57.526Z,97931.56
2022-10-26T10:56:54.911Z,97935.47
2022-10-26T10:59:25.558Z,97927.00
2022-10-26T11:02:23.846Z,97934.19
2022-10-26T11:05:38.978Z,97932.56
2022-10-26T11:08:59.115Z,97939.19
2022-10-26T11:11:41.748Z,97936.22
2022-10-26T11:14:28.234Z,97940.88
2022-10-26T11:17:22.948Z,97938.31
2022-10-26T11:20:12.571Z,97935.81
2022-10-26T11:23:13.182Z,97937.69
2022-10-26T11:25:52.245Z,97940.13
2022-10-26T11:29:07.050Z,97939.00
2022-10-26T11:31:50.315Z,97938.69
2022-10-26T11:35:04.902Z,97947.38
2022-10-26T11:37:47.876Z,97946.94
2022-10-26T11:40:48.063Z,97951.09
2022-10-26T11:43:38.371Z,97953.56
2022-10-26T11:46:28.793Z,97956.72
2022-10-26T11:49:17.547Z,97954.31
2022-10-26T11:52:18.099Z,97957.69
2022-10-26T11:54:54.254Z,97957.94
2022-10-26T11:57:24.125Z,97956.50
2022-10-26T12:00:17.269Z,97961.09
2022-10-26T12:03:02.233Z,97960.75
2022-10-26T12:05:38.550Z,97952.81
2022-10-26T12:08:25.930Z,97954.25
2022-10-26T12:11:14.168Z,97954.91
2022-10-26T12:13:54.524Z,97960.75
2022-10-26T12:17:06.241Z,97958.84
2022-10-26T12:20:00.883Z,97962.25
2022-10-26T12:22:40.162Z,97967.66
2022-10-26T12:25:15.171Z,97959.53
2022-10-26T12:27:43.215Z,97970.88
2022-10-26T12:30:19.467Z,97966.66
2022-10-26T12:32:50.311Z,97970.75
2022-10-26T12:35:44.365Z,97969.34
2022-10-26T12:38:24.382Z,97969.38
2022-10-26T12:41:10.761Z,97971.78
2022-10-26T12:43:41.047Z,97974.25
2022-10-26T12:46:14.816Z,97972.78
2022-10-26T12:48:50.229Z,97972.03
2022-10-26T12:51:24.739Z,97980.28
2022-10-26T12:54:08.659Z,97985.25
2022-10-26T12:56:55.719Z,97991.72
2022-10-26T12:59:39.336Z,97986.72
2022-10-26T13:02:32.795Z,97987.47
2022-10-26T13:05:50.163Z,97995.41
2022-10-26T13:08:18.473Z,97987.25
2022-10-26T13:11:14.775Z,97989.97
2022-10-26T13:13:43.139Z,97988.38
2022-10-26T13:16:13.630Z,97992.41
2022-10-26T13:18:48.565Z,97996.56
2022-10-26T13:21:19.510Z,97996.63
2022-10-26T13:23:54.219Z,97993.50
2022-10-26T13:26:25.641Z,97990.66
2022-10-26T13:29:00.340Z,97989.97
2022-10-26T13:31:34.478Z,97992.78
2022-10-26T13:34:35.058Z,98002.00
2022-10-26T13:37:23.486Z,98008.03
2022-10-26T13:39:55.898Z,98012.28
2022-10-26T13:45:21.430Z,98012.28
2022-10-26T13:48:14.817Z,98010.25
2022-10-26T13:50:55.670Z,98005.91
2022-10-26T13:53:59.707Z,98006.50
2022-10-26T13:57:07.882Z,98011.34
2022-10-26T13:59:43.150Z,98010.53
2022-10-26T14:02:24.349Z,98018.66
2022-10-26T14:05:00.300Z,98024.00
2022-10-26T14:07:58.392Z,98026.59
2022-10-26T14:10:35.907Z,98025.19
2022-10-26T14:13:10.172Z,98026.69
2022-10-26T14:15:38.046Z,98022.31
2022-10-26T14:18:05.947Z,98035.09
2022-10-26T14:20:33.846Z,98038.47
2022-10-26T14:23:01.698Z,98036.59
2022-10-26T14:25:42.087Z,98038.13
2022-10-26T14:28:26.095Z,98036.16
2022-10-26T14:30:54.219Z,98042.97
2022-10-26T14:33:29.241Z,98035.06
2022-10-26T14:35:57.664Z,98043.81
2022-10-26T14:38:29.407Z,98047.69
2022-10-26T14:40:58.461Z,98053.16
2022-10-26T14:43:26.917Z,98056.34
2022-10-26T14:45:56.785Z,98056.84
2022-10-26T14:48:34.908Z,98061.22
2022-10-26T14:51:18.883Z,98060.97
2022-10-26T14:53:57.273Z,98066.03
2022-10-26T14:56:38.483Z,98058.13
2022-10-26T14:59:22.509Z,98070.63
2022-10-26T15:01:56.335Z,98059.06
2022-10-26T15:05:16.211Z,98061.31
2022-10-26T15:07:45.600Z,98061.94
2022-10-26T15:10:38.154Z,98076.25
2022-10-26T15:13:25.585Z,98075.97
2022-10-26T15:15:58.550Z,98081.91
2022-10-26T15:18:35.196Z,98082.03
2022-10-26T15:21:03.723Z,98079.78
2022-10-26T15:23:31.959Z,98077.19
2022-10-26T15:26:02.741Z,98078.50
2022-10-26T15:28:40.605Z,98081.44
2022-10-26T15:31:11.425Z,98083.56
2022-10-26T15:34:03.622Z,98093.47
2022-10-26T15:36:32.920Z,98094.19
2022-10-26T15:39:00.787Z,98092.03
2022-10-26T15:41:40.178Z,98095.72
2022-10-26T15:44:17.938Z,98092.25
2022-10-26T15:46:46.203Z,98094.25
2022-10-26T15:49:20.673Z,98097.06
2022-10-26T15:51:49.530Z,98098.22
2022-10-26T15:54:17.426Z,98104.34
2022-10-26T15:56:45.577Z,98101.16
2022-10-26T15:59:17.969Z,98103.34
2022-10-26T16:01:46.023Z,98107.88
2022-10-26T16:04:14.052Z,98105.56
2022-10-26T16:06:42.953Z,98110.94
2022-10-26T16:09:17.828Z,98109.81
2022-10-26T16:11:45.731Z,98117.19
2022-10-26T16:14:13.825Z,98114.78
2022-10-26T16:16:42.555Z,98115.75
2022-10-26T16:19:29.905Z,98126.88
2022-10-26T16:21:59.260Z,98123.16
2022-10-26T16:24:29.735Z,98129.94
2022-10-26T16:26:58.646Z,98132.72
2022-10-26T16:29:26.724Z,98132.16
2022-10-26T16:31:54.704Z,98131.41
2022-10-26T16:34:22.553Z,98147.47
2022-10-26T16:36:50.391Z,98156.72
2022-10-26T16:39:18.236Z,98153.22
2022-10-26T16:41:48.418Z,98161.63
2022-10-26T16:44:16.247Z,98159.56
2022-10-26T16:46:44.133Z,98155.47
2022-10-26T16:49:12.155Z,98164.66
2022-10-26T16:51:39.993Z,98160.13
2022-10-26T16:54:07.845Z,98160.56
2022-10-26T16:56:36.345Z,98169.78
2022-10-26T16:59:04.307Z,98172.09
2022-10-26T17:01:32.415Z,98172.97
2022-10-26T17:04:01.093Z,98175.50
2022-10-26T17:06:29.058Z,98173.41
2022-10-26T17:08:57.313Z,98188.41
2022-10-26T17:11:25.104Z,98188.00
2022-10-26T17:13:56.190Z,98185.34
2022-10-26T17:16:25.084Z,98189.09
2022-10-26T17:18:54.125Z,98193.25
2022-10-26T17:21:31.837Z,98201.56
2022-10-26T17:23:59.873Z,98204.06
2022-10-26T17:26:28.311Z,98216.16
2022-10-26T17:28:57.971Z,98215.72
2022-10-26T17:31:26.403Z,98217.81
2022-10-26T17:33:56.144Z,98225.31
2022-10-26T17:36:25.948Z,98226.78
2022-10-26T17:38:55.611Z,98228.84
2022-10-26T17:41:24.594Z,98227.63
2022-10-26T17:43:53.612Z,98229.09
2022-10-26T17:46:25.714Z,98236.16
2022-10-26T17:48:59.200Z,98238.22
2022-10-26T17:51:29.579Z,98245.06
2022-10-26T17:53:59.260Z,98248.59
2022-10-26T17:56:30.777Z,98248.81
2022-10-26T17:59:01.853Z,98248.81
2022-10-26T18:01:31.944Z,98247.97
2022-10-26T18:04:00.505Z,98246.75
2022-10-26T18:06:28.781Z,98251.09
2022-10-26T18:08:58.183Z,98244.44
2022-10-26T18:11:27.606Z,98249.44
2022-10-26T18:13:56.624Z,98252.38
2022-10-26T18:16:28.008Z,98256.31
2022-10-26T18:19:02.472Z,98259.22
2022-10-26T18:21:34.484Z,98266.28
2022-10-26T18:24:02.339Z,98273.16
2022-10-26T18:26:30.927Z,98274.00
2022-10-26T18:29:01.707Z,98275.44
2022-10-26T18:31:32.262Z,98277.94
2022-10-26T18:34:02.821Z,98280.22
2022-10-26T18:36:31.362Z,98282.31
2022-10-26T18:38:59.419Z,98280.44
2022-10-26T18:41:27.376Z,98282.06
2022-10-26T18:43:59.675Z,98283.56
2022-10-26T18:46:30.982Z,98290.00
2022-10-26T18:49:00.926Z,98282.06
2022-10-26T18:51:34.961Z,98280.44
2022-10-26T18:54:03.077Z,98285.84
2022-10-26T18:56:31.179Z,98284.78
2022-10-26T18:59:00.422Z,98283.13
2022-10-26T19:01:35.101Z,98285.84
2022-10-26T19:04:08.130Z,98291.88
2022-10-26T19:06:39.848Z,98291.66
2022-10-26T19:09:09.163Z,98290.81
2022-10-26T19:11:38.200Z,98295.41
2022-10-26T19:14:07.521Z,98297.91
2022-10-26T19:16:51.876Z,98301.63
2022-10-26T19:19:20.654Z,98300.81
2022-10-26T19:21:49.929Z,98304.56
2022-10-26T19:24:23.023Z,98311.00
2022-10-26T19:26:52.296Z,98309.34
2022-10-26T19:29:21.177Z,98310.59
2022-10-26T19:31:52.852Z,98324.94
2022-10-26T19:34:21.261Z,98320.34
2022-10-26T19:36:49.140Z,98316.19
2022-10-26T19:39:17.820Z,98314.53
2022-10-26T19:41:46.625Z,98314.50
2022-10-26T19:44:15.573Z,98321.97
2022-10-26T19:46:44.322Z,98311.97
2022-10-26T19:49:17.591Z,98313.78
2022-10-26T19:51:46.914Z,98321.88
2022-10-26T19:54:14.740Z,98320.56
2022-10-26T19:56:42.540Z,98320.56
2022-10-26T19:59:11.309Z,98322.38
2022-10-26T20:01:39.325Z,98328.59
2022-10-26T20:04:07.395Z,98333.13
2022-10-26T20:06:35.261Z,98336.81
2022-10-26T20:09:04.050Z,98337.44
2022-10-26T20:11:36.701Z,98339.25
2022-10-26T20:14:07.407Z,98340.88
2022-10-26T20:16:35.263Z,98334.44
2022-10-26T20:19:03.498Z,98341.44
2022-10-26T20:21:32.132Z,98340.81
2022-10-26T20:23:59.961Z,98339.97
2022-10-26T20:26:28.684Z,98331.22
2022-10-26T20:28:56.765Z,98328.72
2022-10-26T20:31:24.642Z,98335.16
2022-10-26T20:33:53.015Z,98331.81
2022-10-26T20:36:21.205Z,98333.03
2022-10-26T20:38:49.567Z,98341.69
2022-10-26T20:41:17.964Z,98340.25
2022-10-26T20:43:46.361Z,98346.00
2022-10-26T20:46:24.793Z,98358.84
2022-10-26T20:48:54.177Z,98363.81
2022-10-26T20:52:08.219Z,98361.50
2022-10-26T20:54:53.066Z,98366.00
2022-10-26T20:57:30.444Z,98364.56
2022-10-26T21:00:11.032Z,98364.75
2022-10-26T21:02:38.834Z,98366.78
2022-10-26T21:05:07.100Z,98363.47
2022-10-26T21:07:34.899Z,98364.09
2022-10-26T21:10:02.682Z,98373.66
2022-10-26T21:12:30.489Z,98365.19
2022-10-26T21:14:58.243Z,98361.66
2022-10-26T21:17:26.047Z,98366.00
2022-10-26T21:19:53.857Z,98371.13
2022-10-26T21:22:21.851Z,98361.78
2022-10-26T21:24:49.633Z,98362.00
2022-10-26T21:27:17.424Z,98361.31
2022-10-26T21:29:45.195Z,98363.19
2022-10-26T21:32:12.975Z,98370.28
2022-10-26T21:34:40.713Z,98374.63
2022-10-26T21:37:08.513Z,98372.78
2022-10-26T21:39:36.263Z,98384.56
2022-10-26T21:42:04.156Z,98381.06
2022-10-26T21:44:41.251Z,98380.59
2022-10-26T21:47:10.700Z,98386.38
2022-10-26T21:49:39.416Z,98384.06
2022-10-26T21:52:08.139Z,98383.22
2022-10-26T21:54:36.090Z,98379.69
2022-10-26T21:57:04.108Z,98378.69
2022-10-26T21:59:31.889Z,98378.03
2022-10-26T22:01:59.777Z,98384.63
2022-10-26T22:04:27.799Z,98394.59
2022-10-26T22:06:55.666Z,98394.41
2022-10-26T22:09:23.406Z,98391.69
2022-10-26T22:11:51.210Z,98380.09
2022-10-26T22:14:19.281Z,98374.50
2022-10-26T22:16:47.076Z,98382.84
2022-10-26T22:19:14.876Z,98388.06
2022-10-26T22:21:42.715Z,98383.28
2022-10-26T22:24:11.395Z,98386.81
2022-10-26T22:26:39.268Z,98389.06
2022-10-26T22:29:07.346Z,98395.69
2022-10-26T22:31:39.812Z,98381.56
2022-10-26T22:34:14.501Z,98386.31
2022-10-26T22:36:42.845Z,98387.53
2022-10-26T22:39:10.627Z,98388.75
2022-10-26T22:41:38.477Z,98393.03
2022-10-26T22:44:06.351Z,98384.13
2022-10-26T22:46:34.345Z,98385.81
2022-10-26T22:49:02.995Z,98382.47
2022-10-26T22:51:33.984Z,98379.69
2022-10-26T22:54:04.129Z,98381.09
2022-10-26T22:56:34.569Z,98375.06
2022-10-26T22:59:02.655Z,98377.94
2022-10-26T23:01:35.926Z,98383.78
2022-10-26T23:04:04.010Z,98389.00
2022-10-26T23:06:32.844Z,98387.41
2022-10-26T23:09:01.011Z,98393.03
2022-10-26T23:11:29.617Z,98390.34
2022-10-26T23:14:01.255Z,98383.09
2022-10-26T23:16:30.451Z,98388.94
2022-10-26T23:18:59.591Z,98393.13
2022-10-26T23:21:29.398Z,98394.97
2022-10-26T23:23:58.064Z,98390.78
2022-10-26T23:26:26.083Z,98392.03
2022-10-26T23:28:54.119Z,98396.13
2022-10-26T23:31:27.982Z,98391.09
2022-10-26T23:33:56.906Z,98387.31
2022-10-26T23:36:25.768Z,98387.81
2022-10-26T23:38:53.648Z,98394.78
2022-10-26T23:41:21.442Z,98396.16
2022-10-26T23:43:49.239Z,98389.31
2022-10-26T23:46:17.077Z,98396.75
2022-10-26T23:48:44.938Z,98393.75
2022-10-26T23:51:12.774Z,98398.31
2022-10-26T23:53:40.543Z,98405.13
2022-10-26T23:56:08.536Z,98394.53
2022-10-26T23:58:36.299Z,98399.09
